Time;durP1;ratioP1;P1;durP2;ratioP2;P2;SDS_P1;SDS_P2;PMS_P1;PMS_P2;Temp;Humidity;BMP_temperature;BMP_pressure;BME280_temperature;BME280_humidity;BME280_pressure;Samples;Min_cycle;Max_cycle;Signal;HPM_P1;HPM_P2
2022/11/27 00:01:14;;;;;;;169.25;43.42;;;;;;;6.91;100.00;102433.00;4952342;28;20033;-75
2022/11/27 00:03:40;;;;;;;138.60;41.38;;;;;;;6.77;100.00;102423.06;4959064;28;20023;-75
2022/11/27 00:06:06;;;;;;;135.27;40.78;;;;;;;6.77;100.00;102419.53;4955871;28;20018;-75
2022/11/27 00:08:32;;;;;;;169.48;45.05;;;;;;;6.67;100.00;102424.63;4968954;28;20102;-75
2022/11/27 00:11:07;;;;;;;137.43;40.63;;;;;;;6.65;100.00;102426.56;4969309;28;20112;-75
2022/11/27 00:13:33;;;;;;;139.07;40.38;;;;;;;6.54;100.00;102420.97;4955601;28;20152;-76
2022/11/27 00:15:58;;;;;;;139.48;37.95;;;;;;;6.54;100.00;102418.28;4958635;28;20097;-75
2022/11/27 00:18:24;;;;;;;125.25;37.20;;;;;;;6.60;100.00;102417.91;4952319;28;20488;-75
2022/11/27 00:20:49;;;;;;;140.10;38.55;;;;;;;6.63;100.00;102428.47;4958967;28;20051;-75
2022/11/27 00:23:14;;;;;;;150.20;39.72;;;;;;;6.49;100.00;102433.81;4957737;28;20030;-75
2022/11/27 00:25:40;;;;;;;144.85;38.95;;;;;;;6.43;100.00;102426.13;4967056;28;20054;-76
2022/11/27 00:28:05;;;;;;;147.70;38.35;;;;;;;6.52;100.00;102420.19;4957967;28;20081;-75
2022/11/27 00:30:30;;;;;;;123.28;36.38;;;;;;;6.40;100.00;102427.19;4963855;28;20026;-74
2022/11/27 00:32:56;;;;;;;138.30;38.22;;;;;;;6.34;100.00;102427.56;4965099;28;20055;-75
2022/11/27 00:35:21;;;;;;;128.77;36.70;;;;;;;6.36;100.00;102431.00;4954547;28;20014;-75
2022/11/27 00:37:46;;;;;;;119.68;34.15;;;;;;;6.43;100.00;102427.00;4949965;28;20031;-76
2022/11/27 00:40:12;;;;;;;124.85;37.17;;;;;;;6.30;100.00;102427.81;4953365;28;20061;-75
2022/11/27 00:42:38;;;;;;;138.38;39.35;;;;;;;6.41;100.00;102445.06;4973639;28;20068;-74
2022/11/27 00:45:03;;;;;;;109.70;32.50;;;;;;;6.43;100.00;102447.66;4958031;28;20428;-74
2022/11/27 00:47:28;;;;;;;155.07;39.30;;;;;;;6.40;100.00;102442.47;4955906;28;20023;-75
2022/11/27 00:49:54;;;;;;;131.88;37.38;;;;;;;6.36;100.00;102436.41;4962646;28;20443;-75
2022/11/27 00:52:19;;;;;;;124.72;35.95;;;;;;;6.24;100.00;102438.00;4959297;28;20086;-74
2022/11/27 00:54:45;;;;;;;133.52;37.67;;;;;;;6.31;100.00;102443.00;4970127;28;20053;-74
2022/11/27 00:57:10;;;;;;;136.15;37.10;;;;;;;6.29;100.00;102450.31;4962886;28;20031;-74
2022/11/27 00:59:35;;;;;;;126.53;35.88;;;;;;;6.48;100.00;102456.31;4970212;28;20077;-74
2022/11/27 01:02:01;;;;;;;103.78;33.38;;;;;;;6.51;100.00;102450.72;4980247;28;20035;-74
2022/11/27 01:04:26;;;;;;;105.63;30.73;;;;;;;6.53;100.00;102454.22;4973044;28;20534;-74
2022/11/27 01:06:51;;;;;;;147.20;37.38;;;;;;;6.69;100.00;102460.38;4973363;28;20026;-74
2022/11/27 01:09:18;;;;;;;100.20;30.55;;;;;;;6.68;100.00;102445.19;4962987;28;20085;-74
2022/11/27 01:11:43;;;;;;;99.05;31.55;;;;;;;6.65;100.00;102453.47;4989128;28;20506;-74
2022/11/27 01:14:13;;;;;;;133.05;36.63;;;;;;;6.69;100.00;102444.22;4963612;28;20053;-76
2022/11/27 01:16:39;;;;;;;103.30;29.27;;;;;;;6.59;100.00;102448.47;4965855;28;20057;-74
2022/11/27 01:19:04;;;;;;;128.25;31.65;;;;;;;6.48;100.00;102450.94;4955632;28;20066;-73
2022/11/27 01:21:32;;;;;;;113.93;30.75;;;;;;;6.42;100.00;102441.41;4970207;28;20022;-74
2022/11/27 01:23:58;;;;;;;96.28;29.70;;;;;;;6.38;100.00;102439.84;4964401;28;20026;-77
2022/11/27 01:26:24;;;;;;;125.63;32.55;;;;;;;6.47;100.00;102443.81;4959675;28;20014;-74
2022/11/27 01:28:54;;;;;;;109.35;31.63;;;;;;;6.29;100.00;102434.16;4974722;28;20034;-73
2022/11/27 01:31:22;;;;;;;111.47;32.28;;;;;;;6.30;100.00;102423.31;4955829;28;20034;-74
2022/11/27 01:33:52;;;;;;;104.93;30.13;;;;;;;6.36;100.00;102419.38;4959451;28;20023;-74
2022/11/27 01:36:17;;;;;;;115.07;32.33;;;;;;;6.11;100.00;102420.84;4958738;28;20132;-76
2022/11/27 01:38:42;;;;;;;106.72;31.20;;;;;;;6.00;100.00;102423.34;4964862;28;20115;-77
2022/11/27 01:41:16;;;;;;;98.50;29.75;;;;;;;6.08;100.00;102410.28;4959880;28;20034;-74
2022/11/27 01:43:45;;;;;;;122.47;31.38;;;;;;;5.94;100.00;102413.81;5054955;23;20053;-79
2022/11/27 01:46:19;;;;;;;118.28;31.85;;;;;;;5.93;100.00;102411.19;4979954;28;20129;-78
2022/11/27 01:48:46;;;;;;;85.82;26.52;;;;;;;5.92;100.00;102406.78;4972062;28;20080;-78
2022/11/27 01:51:11;;;;;;;98.82;28.52;;;;;;;5.98;100.00;102409.09;4976365;28;20065;-78
2022/11/27 01:53:37;;;;;;;114.68;32.17;;;;;;;5.90;100.00;102403.28;4992800;28;20030;-78
2022/11/27 01:56:07;;;;;;;90.07;26.95;;;;;;;5.88;100.00;102399.84;4999665;28;20096;-78
2022/11/27 01:58:34;;;;;;;109.47;31.05;;;;;;;5.89;100.00;102401.56;4985025;28;20106;-78
2022/11/27 02:01:00;;;;;;;107.13;28.13;;;;;;;5.86;100.00;102404.41;4997586;28;20015;-78
2022/11/27 02:03:25;;;;;;;120.97;29.77;;;;;;;5.83;100.00;102393.84;4980908;28;20054;-76
2022/11/27 02:05:51;;;;;;;101.38;30.08;;;;;;;5.76;100.00;102387.09;4971146;28;20097;-79
2022/11/27 02:08:17;;;;;;;104.90;27.55;;;;;;;5.90;100.00;102390.69;4967509;28;20025;-77
2022/11/27 02:10:48;;;;;;;92.70;26.33;;;;;;;5.94;100.00;102391.44;4978339;28;20018;-77
2022/11/27 02:13:25;;;;;;;98.18;26.17;;;;;;;5.76;100.00;102403.22;4989164;28;20105;-77
2022/11/27 02:16:10;;;;;;;94.80;24.88;;;;;;;5.73;100.00;102398.88;4974496;28;20066;-77
2022/11/27 02:18:35;;;;;;;95.25;25.92;;;;;;;5.72;100.00;102392.63;4972550;28;20095;-77
2022/11/27 02:21:50;;;;;;;90.00;27.50;;;;;;;5.75;100.00;102396.13;4973407;28;20037;-77
2022/11/27 02:24:40;;;;;;;90.75;26.27;;;;;;;5.77;100.00;102388.84;4938747;29;20199;-77
2022/11/27 02:27:23;;;;;;;85.65;27.08;;;;;;;5.68;100.00;102391.09;4936842;28;20033;-76
2022/11/27 02:29:55;;;;;;;86.80;25.83;;;;;;;5.63;100.00;102395.88;4963494;28;20037;-77
2022/11/27 02:32:28;;;;;;;89.70;27.65;;;;;;;5.80;100.00;102394.00;4969356;28;20155;-77
2022/11/27 02:35:03;;;;;;;101.85;28.33;;;;;;;5.62;100.00;102391.47;4974002;28;20057;-77
2022/11/27 02:37:40;;;;;;;107.85;28.58;;;;;;;5.68;100.00;102387.56;4978896;28;20022;-77
2022/11/27 02:40:22;;;;;;;77.65;24.63;;;;;;;5.68;100.00;102391.09;4982391;28;20398;-77
2022/11/27 02:42:57;;;;;;;84.82;26.70;;;;;;;5.62;100.00;102391.47;4988820;28;20026;-77
2022/11/27 02:45:29;;;;;;;86.50;25.77;;;;;;;5.54;100.00;102388.38;4994000;28;20037;-77
2022/11/27 02:48:07;;;;;;;;;;;;;;;;;;;;;
2022/11/27 02:50:56;;;;;;;84.50;26.35;;;;;;;5.47;100.00;102392.31;4976578;28;20031;-77
2022/11/27 02:53:45;;;;;;;80.10;24.88;;;;;;;5.40;100.00;102385.56;4971878;28;20125;-77
2022/11/27 02:56:15;;;;;;;86.35;27.52;;;;;;;5.32;100.00;102377.09;4972360;28;20041;-77
2022/11/27 02:58:41;;;;;;;87.75;24.98;;;;;;;5.32;100.00;102387.84;5000397;28;20094;-77
2022/11/27 03:01:10;;;;;;;108.72;29.30;;;;;;;5.26;100.00;102388.19;4986029;28;20117;-77
2022/11/27 03:03:40;;;;;;;100.43;25.75;;;;;;;5.28;100.00;102386.28;4976544;28;20034;-77
2022/11/27 03:06:10;;;;;;;115.35;29.05;;;;;;;5.36;100.00;102384.03;4968845;28;20026;-77
2022/11/27 03:09:17;;;;;;;98.95;29.10;;;;;;;5.25;100.00;102391.84;4988177;28;20483;-76
2022/11/27 03:11:44;;;;;;;86.85;26.17;;;;;;;5.22;100.00;102392.88;4897964;29;20024;-77
2022/11/27 03:14:11;;;;;;;98.43;29.98;;;;;;;5.21;100.00;102398.31;4918996;29;20040;-77
2022/11/27 03:16:41;;;;;;;92.78;26.73;;;;;;;5.09;100.00;102398.06;4941985;28;20076;-77
2022/11/27 03:19:22;;;;;;;109.82;29.25;;;;;;;5.12;100.00;102386.28;4979785;28;20033;-77
2022/11/27 03:21:57;;;;;;;94.47;27.13;;;;;;;5.08;100.00;102390.94;4982516;28;20072;-77
2022/11/27 03:24:23;;;;;;;93.18;28.55;;;;;;;5.11;100.00;102388.09;4978653;28;20065;-76
2022/11/27 03:26:49;;;;;;;74.90;23.42;;;;;;;5.03;100.00;102387.66;4978951;28;20015;-77
2022/11/27 03:29:33;;;;;;;98.75;29.55;;;;;;;5.07;100.00;102393.72;4975020;28;20024;-77
2022/11/27 03:31:59;;;;;;;96.00;27.85;;;;;;;5.13;100.00;102394.25;4982842;28;20026;-77
2022/11/27 03:34:25;;;;;;;93.63;27.50;;;;;;;5.15;100.00;102392.34;4970669;28;20022;-77
2022/11/27 03:36:50;;;;;;;110.40;30.98;;;;;;;5.07;100.00;102389.22;4970787;28;20029;-78
2022/11/27 03:39:16;;;;;;;103.18;27.83;;;;;;;5.09;100.00;102387.34;4972685;28;20054;-78
2022/11/27 03:41:47;;;;;;;98.85;27.48;;;;;;;5.00;100.00;102387.81;4988336;28;20054;-78
2022/11/27 03:44:21;;;;;;;76.50;23.80;;;;;;;4.87;100.00;102398.38;4989433;28;20033;-76
2022/11/27 03:47:08;;;;;;;101.53;27.13;;;;;;;4.96;100.00;102386.28;4972201;28;20379;-76
2022/11/27 03:50:04;;;;;;;84.68;28.23;;;;;;;4.83;100.00;102391.47;4970587;28;20035;-76
2022/11/27 03:52:42;;;;;;;95.88;28.35;;;;;;;4.81;100.00;102387.97;4980856;28;20041;-77
2022/11/27 03:55:12;;;;;;;93.22;28.90;;;;;;;4.67;100.00;102392.34;4970314;28;20038;-77
2022/11/27 03:57:59;;;;;;;94.60;29.15;;;;;;;4.50;100.00;102386.09;4978180;28;20081;-76
2022/11/27 04:00:29;;;;;;;87.90;27.17;;;;;;;4.62;100.00;102376.50;4978882;28;20019;-77
2022/11/27 04:02:54;;;;;;;112.60;31.20;;;;;;;4.55;100.00;102375.97;4988952;28;20031;-76
2022/11/27 04:05:20;;;;;;;105.43;32.40;;;;;;;4.49;100.00;102370.94;4969301;28;20022;-76
2022/11/27 04:07:46;;;;;;;91.90;29.75;;;;;;;4.51;100.00;102379.78;4994203;28;20022;-79
2022/11/27 04:10:12;;;;;;;92.38;30.58;;;;;;;4.39;100.00;102377.75;4999021;28;20564;-76
2022/11/27 04:12:37;;;;;;;122.88;36.17;;;;;;;4.38;100.00;102362.63;4986605;28;20073;-76
2022/11/27 04:15:04;;;;;;;106.78;34.72;;;;;;;4.36;100.00;102359.13;4987389;28;20034;-76
2022/11/27 04:17:30;;;;;;;128.68;35.47;;;;;;;4.34;100.00;102369.06;4979984;28;20034;-76
2022/11/27 04:19:55;;;;;;;103.97;32.60;;;;;;;4.34;100.00;102366.41;4973573;28;20057;-76
2022/11/27 04:22:21;;;;;;;97.13;31.83;;;;;;;4.12;100.00;102349.72;5004420;28;20426;-76
2022/11/27 04:24:46;;;;;;;104.05;33.60;;;;;;;4.11;100.00;102364.03;4981373;28;20022;-76
2022/11/27 04:27:11;;;;;;;127.47;33.80;;;;;;;4.08;100.00;102360.59;4972415;28;20047;-77
2022/11/27 04:29:37;;;;;;;119.65;34.78;;;;;;;3.98;100.00;102364.69;4985539;28;20026;-77
2022/11/27 04:32:03;;;;;;;115.95;37.50;;;;;;;4.01;100.00;102356.50;4994238;28;20083;-77
2022/11/27 04:34:28;;;;;;;110.63;34.45;;;;;;;3.95;100.00;102370.19;4982008;28;20117;-77
2022/11/27 04:36:54;;;;;;;120.00;38.63;;;;;;;3.86;100.00;102370.69;4989426;28;20148;-77
2022/11/27 04:39:19;;;;;;;94.43;34.38;;;;;;;3.90;100.00;102372.25;4993067;28;20030;-77
2022/11/27 04:41:45;;;;;;;115.30;37.10;;;;;;;3.94;100.00;102362.25;5009818;28;20037;-77
2022/11/27 04:44:11;;;;;;;120.40;39.78;;;;;;;3.86;100.00;102359.97;4993952;28;21596;-77
2022/11/27 04:46:37;;;;;;;141.88;40.40;;;;;;;3.89;100.00;102370.53;5011475;28;20029;-77
2022/11/27 04:49:03;;;;;;;117.32;42.13;;;;;;;3.85;100.00;102358.25;4996293;28;20029;-77
2022/11/27 04:51:28;;;;;;;123.30;38.95;;;;;;;3.86;100.00;102351.94;4998326;28;20033;-79
2022/11/27 04:53:54;;;;;;;129.88;42.10;;;;;;;3.80;100.00;102354.94;4995178;28;20561;-77
2022/11/27 04:56:19;;;;;;;147.85;46.35;;;;;;;3.83;100.00;102349.41;4993937;28;20390;-78
2022/11/27 04:58:45;;;;;;;176.52;52.00;;;;;;;3.74;100.00;102344.53;4994889;28;20026;-77
2022/11/27 05:01:10;;;;;;;197.20;54.30;;;;;;;3.60;100.00;102341.69;4993059;28;20041;-77
2022/11/27 05:03:36;;;;;;;185.80;53.70;;;;;;;3.60;100.00;102330.97;4996475;28;20128;-77
2022/11/27 05:06:01;;;;;;;206.52;55.13;;;;;;;3.64;100.00;102327.16;4992508;28;20025;-77
2022/11/27 05:08:29;;;;;;;207.48;59.15;;;;;;;3.68;100.00;102323.41;4992115;28;20029;-77
2022/11/27 05:11:14;;;;;;;220.43;60.75;;;;;;;3.60;100.00;102314.91;4992840;28;20061;-77
2022/11/27 05:13:40;;;;;;;206.48;56.47;;;;;;;3.57;100.00;102309.69;5009878;28;20056;-77
2022/11/27 05:16:06;;;;;;;238.27;60.50;;;;;;;3.54;100.00;102308.91;4993778;28;20046;-78
2022/11/27 05:18:31;;;;;;;227.15;60.88;;;;;;;3.65;100.00;102312.81;4991958;28;20079;-77
2022/11/27 05:21:05;;;;;;;194.32;57.17;;;;;;;3.51;100.00;102301.00;4991628;28;20370;-77
2022/11/27 05:23:32;;;;;;;218.65;59.53;;;;;;;3.49;100.00;102294.88;4991298;28;20112;-77
2022/11/27 05:25:57;;;;;;;233.52;58.72;;;;;;;3.49;100.00;102302.03;4982197;28;20021;-78
2022/11/27 05:28:23;;;;;;;220.70;58.60;;;;;;;3.77;100.00;102290.75;5009431;28;20030;-77
2022/11/27 05:30:49;;;;;;;207.95;59.67;;;;;;;3.64;100.00;102295.03;4992485;28;20026;-77
2022/11/27 05:33:16;;;;;;;213.55;60.97;;;;;;;3.74;100.00;102288.25;5008165;28;20026;-76
2022/11/27 05:35:41;;;;;;;202.75;56.67;;;;;;;3.70;100.00;102289.34;4991775;28;20028;-76
2022/11/27 05:38:07;;;;;;;160.65;51.53;;;;;;;3.68;100.00;102291.25;4991763;28;20026;-77
2022/11/27 05:40:33;;;;;;;158.88;47.70;;;;;;;3.79;100.00;102281.72;4991882;28;20026;-77
2022/11/27 05:42:59;;;;;;;171.57;50.97;;;;;;;3.75;100.00;102271.25;5010394;28;20406;-79
2022/11/27 05:45:24;;;;;;;172.93;53.00;;;;;;;3.75;100.00;102276.59;4993763;28;20036;-79
2022/11/27 05:47:50;;;;;;;178.52;51.30;;;;;;;3.73;100.00;102273.13;4991881;28;20025;-76
2022/11/27 05:50:15;;;;;;;156.07;46.22;;;;;;;3.64;100.00;102273.59;4991191;28;20050;-77
2022/11/27 05:52:41;;;;;;;153.40;46.53;;;;;;;3.62;100.00;102280.84;4991267;28;20029;-79
2022/11/27 05:55:07;;;;;;;134.60;48.00;;;;;;;3.51;100.00;102279.56;4992453;28;20026;-76
2022/11/27 05:57:32;;;;;;;145.60;45.05;;;;;;;3.52;100.00;102281.34;5009858;28;20441;-79
2022/11/27 05:59:58;;;;;;;141.75;47.20;;;;;;;3.64;100.00;102284.31;4992032;28;20030;-77
2022/11/27 06:02:24;;;;;;;136.95;48.15;;;;;;;3.36;100.00;102280.38;4992946;28;20103;-76
2022/11/27 06:04:50;;;;;;;136.10;45.80;;;;;;;3.42;100.00;102290.78;4991113;28;20025;-78
2022/11/27 06:07:15;;;;;;;121.78;41.00;;;;;;;3.44;100.00;102283.50;5012479;28;20018;-78
2022/11/27 06:09:41;;;;;;;138.70;44.13;;;;;;;3.46;100.00;102287.00;5010740;28;20079;-77
2022/11/27 06:12:06;;;;;;;131.95;42.20;;;;;;;3.37;100.00;102291.94;4992024;28;20037;-76
2022/11/27 06:14:33;;;;;;;119.82;43.00;;;;;;;3.33;100.00;102299.28;4991369;28;20022;-77
2022/11/27 06:17:00;;;;;;;110.50;40.05;;;;;;;3.28;100.00;102287.91;4989374;28;20107;-77
2022/11/27 06:19:26;;;;;;;112.85;40.60;;;;;;;3.30;100.00;102285.16;4990027;28;20052;-76
2022/11/27 06:21:51;;;;;;;128.00;42.67;;;;;;;3.37;100.00;102287.44;4989996;28;20053;-77
2022/11/27 06:24:20;;;;;;;131.48;43.05;;;;;;;3.40;100.00;102287.31;4989611;28;20022;-77
2022/11/27 06:26:46;;;;;;;106.35;39.97;;;;;;;3.31;100.00;102287.75;5007687;28;20068;-76
2022/11/27 06:29:11;;;;;;;124.53;43.90;;;;;;;3.28;100.00;102287.91;5008144;28;20026;-77
2022/11/27 06:31:37;;;;;;;117.78;41.50;;;;;;;3.27;100.00;102291.53;4989114;28;20029;-76
2022/11/27 06:34:03;;;;;;;122.85;41.50;;;;;;;3.16;100.00;102281.38;4991181;28;20057;-76
2022/11/27 06:36:35;;;;;;;114.85;41.78;;;;;;;3.12;100.00;102273.56;4990355;28;20026;-76
2022/11/27 06:39:03;;;;;;;124.32;44.10;;;;;;;3.20;100.00;102271.38;5006621;28;20095;-78
2022/11/27 06:41:29;;;;;;;126.10;44.03;;;;;;;3.19;100.00;102261.59;5005547;28;20037;-77
2022/11/27 06:43:57;;;;;;;112.22;41.50;;;;;;;3.19;100.00;102261.59;5006873;28;20030;-77
2022/11/27 06:46:23;;;;;;;130.30;43.75;;;;;;;3.07;100.00;102259.56;5006955;28;20104;-77
2022/11/27 06:48:50;;;;;;;121.30;41.70;;;;;;;3.00;100.00;102250.97;5000309;28;20164;-75
2022/11/27 06:51:21;;;;;;;125.38;41.78;;;;;;;3.03;100.00;102263.31;4990504;28;20021;-76
2022/11/27 06:53:47;;;;;;;109.85;41.03;;;;;;;3.06;100.00;102255.13;4989285;28;20026;-75
2022/11/27 06:56:18;;;;;;;119.00;41.42;;;;;;;3.03;100.00;102244.59;4990107;28;20026;-76
2022/11/27 06:58:44;;;;;;;115.72;39.63;;;;;;;3.05;100.00;102242.69;4980966;28;20028;-76
2022/11/27 07:01:15;;;;;;;111.75;43.40;;;;;;;3.01;100.00;102241.13;4989199;28;20032;-76
2022/11/27 07:03:41;;;;;;;97.63;38.95;;;;;;;2.98;100.00;102245.66;5005594;28;20014;-76
2022/11/27 07:06:08;;;;;;;102.38;39.95;;;;;;;3.08;100.00;102247.91;5007943;28;20026;-76
2022/11/27 07:08:35;;;;;;;120.15;40.28;;;;;;;3.11;100.00;102243.25;4986674;28;20064;-76
2022/11/27 07:11:01;;;;;;;99.43;37.85;;;;;;;3.02;100.00;102250.88;4988706;28;20022;-77
2022/11/27 07:13:28;;;;;;;111.65;39.60;;;;;;;3.04;100.00;102243.63;4989967;28;20025;-77
2022/11/27 07:15:53;;;;;;;94.82;34.38;;;;;;;3.15;100.00;102249.34;4988557;28;20022;-77
2022/11/27 07:18:19;;;;;;;103.32;35.15;;;;;;;3.09;100.00;102244.28;4990385;28;20060;-77
2022/11/27 07:20:50;;;;;;;113.47;39.08;;;;;;;3.08;100.00;102245.22;5007123;28;20041;-77
2022/11/27 07:23:16;;;;;;;106.57;37.97;;;;;;;3.08;100.00;102253.25;5006557;28;20033;-77
2022/11/27 07:25:41;;;;;;;102.18;36.15;;;;;;;3.08;100.00;102247.91;4989476;28;20033;-77
2022/11/27 07:28:06;;;;;;;103.18;36.72;;;;;;;2.96;100.00;102244.88;4990349;28;20029;-77
2022/11/27 07:30:32;;;;;;;116.40;38.47;;;;;;;3.07;100.00;102251.53;4988894;28;20048;-77
2022/11/27 07:32:57;;;;;;;119.22;37.30;;;;;;;3.02;100.00;102253.56;4989952;28;20025;-79
2022/11/27 07:35:22;;;;;;;121.57;40.20;;;;;;;3.12;100.00;102254.81;4988180;28;20025;-76
2022/11/27 07:37:47;;;;;;;114.30;37.85;;;;;;;3.13;100.00;102245.84;5006011;28;20025;-76
2022/11/27 07:40:13;;;;;;;99.32;37.03;;;;;;;3.04;100.00;102240.97;4989629;28;20314;-75
2022/11/27 07:42:39;;;;;;;99.82;38.88;;;;;;;3.17;100.00;102237.59;4988492;28;20029;-75
2022/11/27 07:45:07;;;;;;;88.85;33.97;;;;;;;3.13;100.00;102246.75;5038077;23;20723;-72
2022/11/27 07:47:32;;;;;;;97.88;34.17;;;;;;;3.24;100.00;102246.19;5001775;28;20045;-71
2022/11/27 07:49:59;;;;;;;100.15;34.70;;;;;;;3.20;100.00;102247.31;5022787;28;20052;-72
2022/11/27 07:52:25;;;;;;;118.68;35.85;;;;;;;3.26;100.00;102241.63;4995564;28;20430;-71
2022/11/27 07:54:50;;;;;;;110.63;33.78;;;;;;;3.20;100.00;102241.94;4990764;28;20112;-71
2022/11/27 07:57:15;;;;;;;93.53;34.67;;;;;;;3.26;100.00;102231.78;5009861;28;20112;-73
2022/11/27 07:59:41;;;;;;;90.00;30.40;;;;;;;3.33;100.00;102221.66;5000510;28;20049;-71
2022/11/27 08:02:10;;;;;;;84.68;32.10;;;;;;;3.23;100.00;102215.88;4991201;28;20053;-71
2022/11/27 08:04:36;;;;;;;87.55;33.45;;;;;;;3.32;100.00;102209.19;5001191;28;20397;-73
2022/11/27 08:07:01;;;;;;;84.72;32.00;;;;;;;3.28;100.00;102204.94;5006247;28;20044;-71
2022/11/27 08:09:28;;;;;;;87.93;31.70;;;;;;;3.27;100.00;102216.59;4995970;28;20053;-71
2022/11/27 08:11:54;;;;;;;81.38;29.63;;;;;;;3.36;100.00;102216.13;5021884;28;20032;-73
2022/11/27 08:14:19;;;;;;;75.75;30.92;;;;;;;3.31;100.00;102210.13;5016889;28;20041;-72
2022/11/27 08:16:45;;;;;;;85.38;32.10;;;;;;;3.39;100.00;102202.59;5001078;28;20088;-73
2022/11/27 08:19:10;;;;;;;72.88;27.98;;;;;;;3.52;100.00;102190.28;4990575;28;20315;-71
2022/11/27 08:21:36;;;;;;;68.53;26.77;;;;;;;3.49;100.00;102201.16;4991314;28;20107;-71
2022/11/27 08:24:01;;;;;;;60.70;27.25;;;;;;;3.58;100.00;102204.28;5000785;28;20536;-73
2022/11/27 08:26:27;;;;;;;66.97;26.05;;;;;;;3.67;100.00;102209.19;5005769;28;20029;-71
2022/11/27 08:28:53;;;;;;;60.20;25.25;;;;;;;3.76;100.00;102197.97;5006258;28;20040;-73
2022/11/27 08:31:19;;;;;;;70.00;27.05;;;;;;;3.86;100.00;102193.84;5007431;28;20042;-71
2022/11/27 08:33:45;;;;;;;63.38;23.58;;;;;;;3.89;100.00;102204.38;4998734;28;20112;-72
2022/11/27 08:36:11;;;;;;;59.72;21.90;;;;;;;3.98;100.00;102203.91;5025250;28;20025;-73
2022/11/27 08:38:36;;;;;;;56.28;20.88;;;;;;;4.17;100.00;102202.88;4996321;28;20487;-71
2022/11/27 08:41:04;;;;;;;46.92;19.48;;;;;;;4.32;100.00;102196.69;4995716;28;20032;-72
2022/11/27 08:43:30;;;;;;;58.85;19.92;;;;;;;4.39;100.00;102190.03;4988538;28;20037;-71
2022/11/27 08:45:56;;;;;;;42.08;21.33;;;;;;;4.30;100.00;102187.84;4992595;28;20033;-71
2022/11/27 08:48:23;;;;;;;53.60;20.92;;;;;;;4.28;100.00;102185.25;4994501;28;20101;-72
2022/11/27 08:50:49;;;;;;;46.95;20.27;;;;;;;4.24;100.00;102180.19;4996609;28;20030;-71
2022/11/27 08:53:15;;;;;;;57.08;21.00;;;;;;;4.05;100.00;102172.28;5017388;28;20034;-71
2022/11/27 08:55:41;;;;;;;51.67;20.55;;;;;;;4.16;100.00;102158.28;5005282;28;20113;-71
2022/11/27 08:58:07;;;;;;;45.25;19.77;;;;;;;4.21;100.00;102157.06;5005324;28;20037;-71
2022/11/27 09:00:34;;;;;;;49.63;19.52;;;;;;;4.11;100.00;102149.59;4995982;28;20030;-71
2022/11/27 09:03:00;;;;;;;59.25;21.13;;;;;;;4.21;100.00;102150.84;5016892;28;20018;-71
2022/11/27 09:05:29;;;;;;;43.65;18.08;;;;;;;4.17;100.00;102146.59;4991418;28;20026;-71
2022/11/27 09:07:54;;;;;;;48.13;19.33;;;;;;;4.18;100.00;102143.00;4978343;28;20039;-71
2022/11/27 09:10:20;;;;;;;38.35;19.33;;;;;;;4.13;100.00;102147.72;5009783;28;20116;-72
2022/11/27 09:12:47;;;;;;;41.75;19.40;;;;;;;4.07;100.00;102160.50;5003588;28;20032;-73
2022/11/27 09:15:13;;;;;;;52.47;21.50;;;;;;;4.22;100.00;102152.56;5000333;28;20034;-74
2022/11/27 09:17:38;;;;;;;51.38;20.02;;;;;;;4.26;100.00;102146.97;5007557;28;20025;-73
2022/11/27 09:20:05;;;;;;;55.97;20.48;;;;;;;4.19;100.00;102142.03;5002993;28;20079;-73
2022/11/27 09:22:32;;;;;;;56.25;18.33;;;;;;;4.26;100.00;102148.78;5023914;28;20087;-74
2022/11/27 09:24:58;;;;;;;36.80;16.88;;;;;;;4.42;100.00;102149.63;5024625;28;20018;-73
2022/11/27 09:27:23;;;;;;;37.10;16.83;;;;;;;4.51;100.00;102154.47;4999999;28;20032;-74
2022/11/27 09:29:49;;;;;;;37.92;16.27;;;;;;;4.67;100.00;102169.69;5003424;28;20076;-73
2022/11/27 09:32:14;;;;;;;34.55;16.58;;;;;;;4.62;100.00;102167.25;5018740;28;20021;-74
2022/11/27 09:34:40;;;;;;;35.00;17.00;;;;;;;4.81;100.00;102162.56;5007587;28;20097;-74
2022/11/27 09:37:06;;;;;;;49.17;19.42;;;;;;;4.66;100.00;102149.19;5013786;28;20029;-72
2022/11/27 09:39:32;;;;;;;39.33;18.92;;;;;;;4.40;100.00;102146.19;4996560;28;20030;-73
2022/11/27 09:42:00;;;;;;;38.63;17.20;;;;;;;4.43;100.00;102135.25;4996017;28;20030;-72
2022/11/27 09:44:44;;;;;;;40.33;16.88;;;;;;;4.48;100.00;102117.09;4965453;28;1069941;-73
2022/11/27 09:47:12;;;;;;;42.53;17.27;;;;;;;4.53;100.00;102104.28;5008941;28;20037;-73
2022/11/27 09:49:53;;;;;;;45.50;18.60;;;;;;;4.58;100.00;102112.94;5007211;28;20045;-72
2022/11/27 09:52:48;;;;;;;42.38;18.98;;;;;;;4.59;100.00;102109.28;4993955;28;20029;-72
2022/11/27 09:55:25;;;;;;;38.88;16.90;;;;;;;4.67;100.00;102105.31;4994910;28;20088;-73
2022/11/27 09:57:58;;;;;;;38.78;16.98;;;;;;;4.92;100.00;102110.94;5003930;28;20045;-74
2022/11/27 10:00:23;;;;;;;46.67;17.35;;;;;;;5.09;100.00;102105.44;4997469;28;20037;-72
2022/11/27 10:02:49;;;;;;;39.20;18.58;;;;;;;5.10;100.00;102104.47;5025581;28;20112;-73
2022/11/27 10:05:22;;;;;;;53.45;17.40;;;;;;;5.05;100.00;102095.84;4996309;28;20033;-73
2022/11/27 10:08:15;;;;;;;42.22;17.35;;;;;;;5.02;100.00;102085.31;5000028;28;20037;-73
2022/11/27 10:11:16;;;;;;;42.55;19.88;;;;;;;4.96;100.00;102085.66;4990398;28;20037;-72
2022/11/27 10:13:44;;;;;;;39.95;17.63;;;;;;;5.04;100.00;102088.75;4950705;28;20072;-73
2022/11/27 10:16:33;;;;;;;38.08;17.20;;;;;;;5.09;100.00;102093.84;5026834;28;20037;-73
2022/11/27 10:19:30;;;;;;;38.40;17.63;;;;;;;5.04;100.00;102094.13;5010600;28;20467;-72
2022/11/27 10:22:11;;;;;;;38.00;18.38;;;;;;;5.12;100.00;102088.28;4994755;28;20061;-73
2022/11/27 10:24:44;;;;;;;35.22;16.05;;;;;;;5.10;100.00;102093.75;5014967;28;20033;-73
2022/11/27 10:27:25;;;;;;;52.33;17.13;;;;;;;5.38;100.00;102108.16;5002813;28;20021;-72
2022/11/27 10:29:55;;;;;;;33.08;13.55;;;;;;;5.20;100.00;102104.78;4994003;28;20097;-73
2022/11/27 10:32:29;;;;;;;41.58;15.90;;;;;;;5.20;100.00;102109.28;4992643;28;20025;-73
2022/11/27 10:35:01;;;;;;;32.25;14.38;;;;;;;5.12;100.00;102097.19;5001472;28;20100;-73
2022/11/27 10:37:42;;;;;;;36.17;14.82;;;;;;;5.35;100.00;102097.63;4998517;28;20026;-74
2022/11/27 10:40:24;;;;;;;34.85;16.17;;;;;;;5.12;100.00;102086.44;5000186;28;20118;-74
2022/11/27 10:43:06;;;;;;;31.55;15.05;;;;;;;5.38;100.00;102081.31;5013109;28;20037;-73
2022/11/27 10:45:53;;;;;;;29.20;15.23;;;;;;;5.33;100.00;102088.78;4991500;28;20052;-74
2022/11/27 10:48:21;;;;;;;33.72;15.05;;;;;;;5.40;100.00;102079.38;4998549;28;20030;-74
2022/11/27 10:50:47;;;;;;;36.88;15.00;;;;;;;5.65;100.00;102078.72;4990957;28;20022;-74
2022/11/27 10:53:33;;;;;;;30.63;14.18;;;;;;;5.57;100.00;102081.88;4995017;28;20029;-75
2022/11/27 10:56:14;;;;;;;35.08;14.57;;;;;;;5.65;100.00;102086.78;4994752;28;20109;-74
2022/11/27 10:59:01;;;;;;;31.98;15.07;;;;;;;5.65;100.00;102090.31;5001833;28;20033;-73
2022/11/27 11:01:39;;;;;;;33.30;13.90;;;;;;;5.77;100.00;102093.19;5000802;28;20021;-74
2022/11/27 11:04:06;;;;;;;29.98;14.77;;;;;;;5.76;100.00;102091.47;4996378;28;20075;-72
2022/11/27 11:06:37;;;;;;;32.47;14.25;;;;;;;5.77;100.00;102087.81;5001010;28;20029;-72
2022/11/27 11:09:30;;;;;;;40.75;14.20;;;;;;;5.76;100.00;102080.72;4992696;28;20026;-72
2022/11/27 11:12:19;;;;;;;34.42;13.93;;;;;;;5.82;100.00;102080.34;5020565;28;20151;-72
2022/11/27 11:14:53;;;;;;;43.85;14.52;;;;;;;5.85;100.00;102081.00;4991048;28;20028;-73
2022/11/27 11:17:36;;;;;;;31.85;14.18;;;;;;;5.83;100.00;102082.06;5001494;28;20112;-72